sensor_id;sensor_type;location;lat;lon;timestamp;P1;durP1;ratioP1;P2;durP2;ratioP2
46971;SDS011;32722;43.486;2.766;2022-08-19T00:01:33;4.30;;;3.90;;
46971;SDS011;32722;43.486;2.766;2022-08-19T00:04:00;6.93;;;3.97;;
46971;SDS011;32722;43.486;2.766;2022-08-19T00:06:27;5.97;;;4.10;;
46971;SDS011;32722;43.486;2.766;2022-08-19T00:08:54;5.40;;;4.85;;
46971;SDS011;32722;43.486;2.766;2022-08-19T00:11:21;6.40;;;4.70;;
46971;SDS011;32722;43.486;2.766;2022-08-19T00:13:47;5.55;;;4.60;;
46971;SDS011;32722;43.486;2.766;2022-08-19T00:16:17;5.70;;;4.95;;
46971;SDS011;32722;43.486;2.766;2022-08-19T00:18:45;5.13;;;4.35;;
46971;SDS011;32722;43.486;2.766;2022-08-19T00:21:12;4.25;;;3.85;;
46971;SDS011;32722;43.486;2.766;2022-08-19T00:23:39;6.20;;;4.75;;
46971;SDS011;32722;43.486;2.766;2022-08-19T00:26:05;6.47;;;4.38;;
46971;SDS011;32722;43.486;2.766;2022-08-19T00:28:32;5.25;;;4.32;;
46971;SDS011;32722;43.486;2.766;2022-08-19T00:30:59;5.03;;;4.05;;
46971;SDS011;32722;43.486;2.766;2022-08-19T00:33:28;5.50;;;4.28;;
46971;SDS011;32722;43.486;2.766;2022-08-19T00:35:57;4.57;;;4.15;;
46971;SDS011;32722;43.486;2.766;2022-08-19T00:38:24;5.18;;;4.35;;
46971;SDS011;32722;43.486;2.766;2022-08-19T00:40:50;5.53;;;4.22;;
46971;SDS011;32722;43.486;2.766;2022-08-19T00:43:18;4.60;;;4.20;;
46971;SDS011;32722;43.486;2.766;2022-08-19T00:45:45;4.50;;;4.10;;
46971;SDS011;32722;43.486;2.766;2022-08-19T00:48:12;5.57;;;4.50;;
46971;SDS011;32722;43.486;2.766;2022-08-19T00:50:39;5.28;;;4.10;;
46971;SDS011;32722;43.486;2.766;2022-08-19T00:53:05;5.25;;;3.85;;
46971;SDS011;32722;43.486;2.766;2022-08-19T00:55:32;5.00;;;4.35;;
46971;SDS011;32722;43.486;2.766;2022-08-19T00:58:02;7.43;;;4.45;;
46971;SDS011;32722;43.486;2.766;2022-08-19T01:00:31;4.90;;;4.50;;
46971;SDS011;32722;43.486;2.766;2022-08-19T01:03:00;4.90;;;4.50;;
46971;SDS011;32722;43.486;2.766;2022-08-19T01:05:27;4.93;;;4.35;;
46971;SDS011;32722;43.486;2.766;2022-08-19T01:07:58;7.63;;;4.95;;
46971;SDS011;32722;43.486;2.766;2022-08-19T01:10:26;5.32;;;4.70;;
46971;SDS011;32722;43.486;2.766;2022-08-19T01:12:53;4.93;;;4.43;;
46971;SDS011;32722;43.486;2.766;2022-08-19T01:15:21;5.85;;;5.15;;
46971;SDS011;32722;43.486;2.766;2022-08-19T01:17:48;8.10;;;5.50;;
46971;SDS011;32722;43.486;2.766;2022-08-19T01:20:19;6.38;;;5.78;;
46971;SDS011;32722;43.486;2.766;2022-08-19T01:22:47;7.28;;;4.93;;
46971;SDS011;32722;43.486;2.766;2022-08-19T01:25:15;5.88;;;5.28;;
46971;SDS011;32722;43.486;2.766;2022-08-19T01:27:43;5.50;;;5.00;;
46971;SDS011;32722;43.486;2.766;2022-08-19T01:30:20;9.45;;;5.82;;
46971;SDS011;32722;43.486;2.766;2022-08-19T01:32:47;6.55;;;5.57;;
46971;SDS011;32722;43.486;2.766;2022-08-19T01:35:14;8.20;;;5.20;;
46971;SDS011;32722;43.486;2.766;2022-08-19T01:37:43;6.00;;;4.95;;
46971;SDS011;32722;43.486;2.766;2022-08-19T01:40:09;5.65;;;5.15;;
46971;SDS011;32722;43.486;2.766;2022-08-19T01:42:35;6.03;;;5.40;;
46971;SDS011;32722;43.486;2.766;2022-08-19T01:45:02;6.32;;;5.70;;
46971;SDS011;32722;43.486;2.766;2022-08-19T01:47:28;7.80;;;6.05;;
46971;SDS011;32722;43.486;2.766;2022-08-19T01:49:54;6.63;;;5.88;;
46971;SDS011;32722;43.486;2.766;2022-08-19T01:52:21;8.57;;;5.85;;
46971;SDS011;32722;43.486;2.766;2022-08-19T01:54:47;6.40;;;5.80;;
46971;SDS011;32722;43.486;2.766;2022-08-19T01:57:13;9.73;;;6.47;;
46971;SDS011;32722;43.486;2.766;2022-08-19T01:59:40;8.07;;;5.90;;
46971;SDS011;32722;43.486;2.766;2022-08-19T02:02:07;6.30;;;5.60;;
46971;SDS011;32722;43.486;2.766;2022-08-19T02:04:34;6.20;;;5.60;;
46971;SDS011;32722;43.486;2.766;2022-08-19T02:07:02;7.32;;;6.20;;
46971;SDS011;32722;43.486;2.766;2022-08-19T02:09:30;8.45;;;6.28;;
46971;SDS011;32722;43.486;2.766;2022-08-19T02:11:56;11.13;;;6.68;;
46971;SDS011;32722;43.486;2.766;2022-08-19T02:14:22;7.05;;;6.35;;
46971;SDS011;32722;43.486;2.766;2022-08-19T02:16:48;6.32;;;5.72;;
46971;SDS011;32722;43.486;2.766;2022-08-19T02:19:15;6.57;;;5.97;;
46971;SDS011;32722;43.486;2.766;2022-08-19T02:21:41;6.65;;;5.93;;
46971;SDS011;32722;43.486;2.766;2022-08-19T02:24:08;7.72;;;6.43;;
46971;SDS011;32722;43.486;2.766;2022-08-19T02:26:34;7.43;;;6.45;;
46971;SDS011;32722;43.486;2.766;2022-08-19T02:29:00;7.95;;;6.60;;
46971;SDS011;32722;43.486;2.766;2022-08-19T02:31:27;7.90;;;7.10;;
46971;SDS011;32722;43.486;2.766;2022-08-19T02:33:53;8.05;;;6.88;;
46971;SDS011;32722;43.486;2.766;2022-08-19T02:36:20;8.43;;;6.43;;
46971;SDS011;32722;43.486;2.766;2022-08-19T02:38:47;7.95;;;6.38;;
46971;SDS011;32722;43.486;2.766;2022-08-19T02:41:17;10.38;;;6.45;;
46971;SDS011;32722;43.486;2.766;2022-08-19T02:43:43;6.78;;;6.07;;
46971;SDS011;32722;43.486;2.766;2022-08-19T02:46:18;6.97;;;6.28;;
46971;SDS011;32722;43.486;2.766;2022-08-19T02:48:47;7.22;;;6.47;;
46971;SDS011;32722;43.486;2.766;2022-08-19T02:51:17;8.38;;;7.18;;
46971;SDS011;32722;43.486;2.766;2022-08-19T02:53:43;7.45;;;6.63;;
46971;SDS011;32722;43.486;2.766;2022-08-19T02:56:09;7.45;;;6.55;;
46971;SDS011;32722;43.486;2.766;2022-08-19T02:58:35;10.23;;;6.78;;
46971;SDS011;32722;43.486;2.766;2022-08-19T03:01:01;8.63;;;6.90;;
46971;SDS011;32722;43.486;2.766;2022-08-19T03:03:28;8.13;;;6.95;;
46971;SDS011;32722;43.486;2.766;2022-08-19T03:06:04;8.15;;;7.05;;
46971;SDS011;32722;43.486;2.766;2022-08-19T03:08:31;7.85;;;6.85;;
46971;SDS011;32722;43.486;2.766;2022-08-19T03:10:57;13.18;;;7.40;;
46971;SDS011;32722;43.486;2.766;2022-08-19T03:13:24;10.55;;;6.88;;
46971;SDS011;32722;43.486;2.766;2022-08-19T03:15:50;8.68;;;7.43;;
46971;SDS011;32722;43.486;2.766;2022-08-19T03:18:16;8.68;;;7.13;;
46971;SDS011;32722;43.486;2.766;2022-08-19T03:20:43;8.20;;;7.38;;
46971;SDS011;32722;43.486;2.766;2022-08-19T03:23:10;8.07;;;7.28;;
46971;SDS011;32722;43.486;2.766;2022-08-19T03:25:41;10.23;;;7.00;;
46971;SDS011;32722;43.486;2.766;2022-08-19T03:28:09;7.30;;;6.60;;
46971;SDS011;32722;43.486;2.766;2022-08-19T03:30:35;10.30;;;7.15;;
46971;SDS011;32722;43.486;2.766;2022-08-19T03:33:01;9.43;;;7.03;;
46971;SDS011;32722;43.486;2.766;2022-08-19T03:35:27;7.72;;;6.93;;
46971;SDS011;32722;43.486;2.766;2022-08-19T03:37:54;10.55;;;7.20;;
46971;SDS011;32722;43.486;2.766;2022-08-19T03:40:21;7.50;;;6.72;;
46971;SDS011;32722;43.486;2.766;2022-08-19T03:42:47;11.38;;;6.85;;
46971;SDS011;32722;43.486;2.766;2022-08-19T03:45:15;8.55;;;6.80;;
46971;SDS011;32722;43.486;2.766;2022-08-19T03:47:41;8.77;;;6.85;;
46971;SDS011;32722;43.486;2.766;2022-08-19T03:50:07;7.50;;;6.78;;
46971;SDS011;32722;43.486;2.766;2022-08-19T03:52:34;8.40;;;6.80;;
46971;SDS011;32722;43.486;2.766;2022-08-19T03:55:01;7.80;;;6.57;;
46971;SDS011;32722;43.486;2.766;2022-08-19T03:57:27;7.97;;;6.10;;
46971;SDS011;32722;43.486;2.766;2022-08-19T03:59:53;8.85;;;6.65;;
46971;SDS011;32722;43.486;2.766;2022-08-19T04:02:19;11.20;;;6.30;;
46971;SDS011;32722;43.486;2.766;2022-08-19T04:04:46;8.35;;;6.63;;
46971;SDS011;32722;43.486;2.766;2022-08-19T04:07:13;8.50;;;6.35;;
46971;SDS011;32722;43.486;2.766;2022-08-19T04:09:46;6.90;;;5.53;;
46971;SDS011;32722;43.486;2.766;2022-08-19T04:12:12;9.10;;;6.13;;
46971;SDS011;32722;43.486;2.766;2022-08-19T04:14:38;7.57;;;6.50;;
46971;SDS011;32722;43.486;2.766;2022-08-19T04:17:05;8.20;;;6.13;;
46971;SDS011;32722;43.486;2.766;2022-08-19T04:19:31;9.50;;;5.50;;
46971;SDS011;32722;43.486;2.766;2022-08-19T04:21:58;9.52;;;5.70;;
46971;SDS011;32722;43.486;2.766;2022-08-19T04:24:24;8.10;;;5.82;;
46971;SDS011;32722;43.486;2.766;2022-08-19T04:26:50;6.65;;;5.47;;
46971;SDS011;32722;43.486;2.766;2022-08-19T04:29:21;6.80;;;5.93;;
46971;SDS011;32722;43.486;2.766;2022-08-19T04:31:50;7.32;;;5.15;;
46971;SDS011;32722;43.486;2.766;2022-08-19T04:34:17;6.47;;;5.20;;
46971;SDS011;32722;43.486;2.766;2022-08-19T04:39:17;7.13;;;5.78;;
46971;SDS011;32722;43.486;2.766;2022-08-19T04:41:44;7.78;;;6.15;;
46971;SDS011;32722;43.486;2.766;2022-08-19T04:44:33;6.18;;;5.57;;
46971;SDS011;32722;43.486;2.766;2022-08-19T04:46:59;6.88;;;5.20;;
46971;SDS011;32722;43.486;2.766;2022-08-19T04:49:26;6.03;;;5.10;;
46971;SDS011;32722;43.486;2.766;2022-08-19T04:51:53;7.82;;;5.75;;
46971;SDS011;32722;43.486;2.766;2022-08-19T04:54:20;7.18;;;5.10;;
46971;SDS011;32722;43.486;2.766;2022-08-19T04:56:48;7.78;;;5.78;;
46971;SDS011;32722;43.486;2.766;2022-08-19T04:59:15;7.45;;;5.10;;
46971;SDS011;32722;43.486;2.766;2022-08-19T05:01:41;5.78;;;5.13;;
46971;SDS011;32722;43.486;2.766;2022-08-19T05:04:08;5.75;;;5.25;;
46971;SDS011;32722;43.486;2.766;2022-08-19T05:06:35;7.07;;;5.18;;
46971;SDS011;32722;43.486;2.766;2022-08-19T05:09:04;6.03;;;4.55;;
46971;SDS011;32722;43.486;2.766;2022-08-19T05:11:32;5.75;;;5.15;;
46971;SDS011;32722;43.486;2.766;2022-08-19T05:13:59;7.18;;;4.78;;
46971;SDS011;32722;43.486;2.766;2022-08-19T05:16:26;6.43;;;5.25;;
46971;SDS011;32722;43.486;2.766;2022-08-19T05:18:52;8.07;;;4.82;;
46971;SDS011;32722;43.486;2.766;2022-08-19T05:21:38;5.53;;;4.63;;
46971;SDS011;32722;43.486;2.766;2022-08-19T05:24:23;6.25;;;4.65;;
46971;SDS011;32722;43.486;2.766;2022-08-19T05:26:50;6.45;;;4.93;;
46971;SDS011;32722;43.486;2.766;2022-08-19T05:29:19;5.90;;;4.88;;
46971;SDS011;32722;43.486;2.766;2022-08-19T05:31:46;7.97;;;4.97;;
46971;SDS011;32722;43.486;2.766;2022-08-19T05:34:17;6.70;;;4.55;;
46971;SDS011;32722;43.486;2.766;2022-08-19T05:36:44;5.55;;;4.65;;
46971;SDS011;32722;43.486;2.766;2022-08-19T05:39:11;5.85;;;4.53;;
46971;SDS011;32722;43.486;2.766;2022-08-19T05:41:45;9.00;;;5.45;;
46971;SDS011;32722;43.486;2.766;2022-08-19T05:44:11;6.35;;;4.82;;
46971;SDS011;32722;43.486;2.766;2022-08-19T05:46:37;6.22;;;4.05;;
46971;SDS011;32722;43.486;2.766;2022-08-19T05:49:07;5.07;;;4.28;;
46971;SDS011;32722;43.486;2.766;2022-08-19T05:51:34;5.22;;;4.22;;
46971;SDS011;32722;43.486;2.766;2022-08-19T05:54:01;5.88;;;4.43;;
46971;SDS011;32722;43.486;2.766;2022-08-19T05:56:27;7.40;;;4.25;;
46971;SDS011;32722;43.486;2.766;2022-08-19T05:58:55;5.32;;;4.28;;
46971;SDS011;32722;43.486;2.766;2022-08-19T06:01:22;5.53;;;3.95;;
46971;SDS011;32722;43.486;2.766;2022-08-19T06:03:48;4.70;;;3.95;;
46971;SDS011;32722;43.486;2.766;2022-08-19T06:06:15;5.63;;;4.15;;
46971;SDS011;32722;43.486;2.766;2022-08-19T06:08:41;4.75;;;4.35;;
46971;SDS011;32722;43.486;2.766;2022-08-19T06:13:39;5.70;;;4.57;;
46971;SDS011;32722;43.486;2.766;2022-08-19T06:16:05;5.63;;;4.30;;
46971;SDS011;32722;43.486;2.766;2022-08-19T06:18:31;3.95;;;3.55;;
46971;SDS011;32722;43.486;2.766;2022-08-19T06:20:58;5.88;;;4.13;;
46971;SDS011;32722;43.486;2.766;2022-08-19T06:23:29;7.07;;;3.78;;
46971;SDS011;32722;43.486;2.766;2022-08-19T06:25:55;3.33;;;3.03;;
46971;SDS011;32722;43.486;2.766;2022-08-19T06:28:21;4.13;;;2.80;;
46971;SDS011;32722;43.486;2.766;2022-08-19T06:30:48;4.53;;;2.97;;
46971;SDS011;32722;43.486;2.766;2022-08-19T06:33:16;3.35;;;2.53;;
46971;SDS011;32722;43.486;2.766;2022-08-19T06:35:42;3.95;;;3.10;;
46971;SDS011;32722;43.486;2.766;2022-08-19T06:38:08;4.85;;;3.30;;
46971;SDS011;32722;43.486;2.766;2022-08-19T06:40:35;3.00;;;2.70;;
46971;SDS011;32722;43.486;2.766;2022-08-19T06:43:02;3.67;;;3.10;;
46971;SDS011;32722;43.486;2.766;2022-08-19T06:45:29;3.30;;;3.00;;
46971;SDS011;32722;43.486;2.766;2022-08-19T06:47:55;3.90;;;2.63;;
46971;SDS011;32722;43.486;2.766;2022-08-19T06:50:24;3.10;;;2.72;;
46971;SDS011;32722;43.486;2.766;2022-08-19T06:52:50;3.17;;;2.80;;
46971;SDS011;32722;43.486;2.766;2022-08-19T06:55:17;3.85;;;2.60;;
46971;SDS011;32722;43.486;2.766;2022-08-19T06:57:43;3.25;;;2.83;;
46971;SDS011;32722;43.486;2.766;2022-08-19T07:00:11;3.70;;;2.83;;
46971;SDS011;32722;43.486;2.766;2022-08-19T07:02:40;3.00;;;2.67;;
46971;SDS011;32722;43.486;2.766;2022-08-19T07:05:07;2.55;;;2.33;;
46971;SDS011;32722;43.486;2.766;2022-08-19T07:07:33;2.70;;;2.20;;
46971;SDS011;32722;43.486;2.766;2022-08-19T07:09:59;3.38;;;2.63;;
46971;SDS011;32722;43.486;2.766;2022-08-19T07:12:27;4.18;;;2.10;;
46971;SDS011;32722;43.486;2.766;2022-08-19T07:14:53;2.60;;;2.40;;
46971;SDS011;32722;43.486;2.766;2022-08-19T07:17:19;2.42;;;2.03;;
46971;SDS011;32722;43.486;2.766;2022-08-19T07:19:45;3.85;;;1.90;;
46971;SDS011;32722;43.486;2.766;2022-08-19T07:22:12;2.38;;;1.73;;
46971;SDS011;32722;43.486;2.766;2022-08-19T07:24:38;2.00;;;1.77;;
46971;SDS011;32722;43.486;2.766;2022-08-19T07:27:05;3.03;;;1.90;;
46971;SDS011;32722;43.486;2.766;2022-08-19T07:29:32;2.05;;;1.65;;
46971;SDS011;32722;43.486;2.766;2022-08-19T07:31:59;2.63;;;2.22;;
46971;SDS011;32722;43.486;2.766;2022-08-19T07:34:27;1.67;;;1.58;;
46971;SDS011;32722;43.486;2.766;2022-08-19T07:36:54;3.15;;;1.92;;
46971;SDS011;32722;43.486;2.766;2022-08-19T07:39:27;1.30;;;1.20;;
46971;SDS011;32722;43.486;2.766;2022-08-19T07:41:54;1.60;;;1.50;;
46971;SDS011;32722;43.486;2.766;2022-08-19T07:44:21;1.40;;;1.30;;
46971;SDS011;32722;43.486;2.766;2022-08-19T07:46:49;1.63;;;1.00;;
46971;SDS011;32722;43.486;2.766;2022-08-19T07:49:17;1.17;;;1.10;;
46971;SDS011;32722;43.486;2.766;2022-08-19T07:51:54;1.48;;;1.27;;
46971;SDS011;32722;43.486;2.766;2022-08-19T07:54:21;1.55;;;1.30;;
46971;SDS011;32722;43.486;2.766;2022-08-19T07:56:47;1.83;;;1.20;;
46971;SDS011;32722;43.486;2.766;2022-08-19T07:59:15;1.45;;;1.20;;
46971;SDS011;32722;43.486;2.766;2022-08-19T08:01:42;1.17;;;1.08;;
46971;SDS011;32722;43.486;2.766;2022-08-19T08:04:09;2.20;;;1.00;;
46971;SDS011;32722;43.486;2.766;2022-08-19T08:06:54;1.13;;;1.02;;
46971;SDS011;32722;43.486;2.766;2022-08-19T08:09:40;1.33;;;1.00;;
46971;SDS011;32722;43.486;2.766;2022-08-19T08:14:35;1.02;;;1.02;;
46971;SDS011;32722;43.486;2.766;2022-08-19T08:17:01;1.33;;;1.20;;
46971;SDS011;32722;43.486;2.766;2022-08-19T08:19:28;2.17;;;1.00;;
46971;SDS011;32722;43.486;2.766;2022-08-19T08:21:55;1.33;;;1.23;;
46971;SDS011;32722;43.486;2.766;2022-08-19T08:24:22;2.28;;;2.08;;
46971;SDS011;32722;43.486;2.766;2022-08-19T08:26:48;1.90;;;1.80;;
46971;SDS011;32722;43.486;2.766;2022-08-19T08:29:14;3.15;;;2.85;;
46971;SDS011;32722;43.486;2.766;2022-08-19T08:31:41;2.88;;;2.65;;
46971;SDS011;32722;43.486;2.766;2022-08-19T08:34:08;3.70;;;3.22;;
46971;SDS011;32722;43.486;2.766;2022-08-19T08:36:40;3.50;;;3.20;;
46971;SDS011;32722;43.486;2.766;2022-08-19T08:39:11;3.95;;;3.13;;
46971;SDS011;32722;43.486;2.766;2022-08-19T08:44:05;2.83;;;2.60;;
46971;SDS011;32722;43.486;2.766;2022-08-19T08:46:36;2.65;;;2.35;;
46971;SDS011;32722;43.486;2.766;2022-08-19T08:51:39;3.58;;;3.10;;
46971;SDS011;32722;43.486;2.766;2022-08-19T08:54:07;3.80;;;2.95;;
46971;SDS011;32722;43.486;2.766;2022-08-19T08:56:33;3.67;;;2.85;;
46971;SDS011;32722;43.486;2.766;2022-08-19T08:59:01;3.47;;;3.17;;
46971;SDS011;32722;43.486;2.766;2022-08-19T09:01:28;4.18;;;2.83;;
46971;SDS011;32722;43.486;2.766;2022-08-19T09:03:55;4.35;;;3.60;;
46971;SDS011;32722;43.486;2.766;2022-08-19T09:06:27;3.30;;;3.00;;
46971;SDS011;32722;43.486;2.766;2022-08-19T09:09:03;5.05;;;2.83;;
46971;SDS011;32722;43.486;2.766;2022-08-19T09:14:07;3.78;;;2.50;;
46971;SDS011;32722;43.486;2.766;2022-08-19T09:16:35;2.78;;;2.50;;
46971;SDS011;32722;43.486;2.766;2022-08-19T09:19:05;4.13;;;2.83;;
46971;SDS011;32722;43.486;2.766;2022-08-19T09:21:32;3.70;;;3.38;;
46971;SDS011;32722;43.486;2.766;2022-08-19T09:24:00;4.05;;;2.80;;
46971;SDS011;32722;43.486;2.766;2022-08-19T09:26:26;3.03;;;2.78;;
46971;SDS011;32722;43.486;2.766;2022-08-19T09:28:52;3.55;;;3.00;;
46971;SDS011;32722;43.486;2.766;2022-08-19T09:31:22;3.78;;;2.92;;
46971;SDS011;32722;43.486;2.766;2022-08-19T09:33:48;3.75;;;2.83;;
46971;SDS011;32722;43.486;2.766;2022-08-19T09:36:15;3.67;;;3.03;;
46971;SDS011;32722;43.486;2.766;2022-08-19T09:38:43;4.78;;;3.45;;
46971;SDS011;32722;43.486;2.766;2022-08-19T09:41:14;4.20;;;3.40;;
46971;SDS011;32722;43.486;2.766;2022-08-19T09:43:42;3.58;;;3.20;;
46971;SDS011;32722;43.486;2.766;2022-08-19T09:46:10;4.50;;;3.17;;
46971;SDS011;32722;43.486;2.766;2022-08-19T09:48:37;3.80;;;3.28;;
46971;SDS011;32722;43.486;2.766;2022-08-19T09:51:07;3.83;;;3.33;;
46971;SDS011;32722;43.486;2.766;2022-08-19T09:53:34;4.05;;;3.65;;
46971;SDS011;32722;43.486;2.766;2022-08-19T09:56:01;3.20;;;2.90;;
46971;SDS011;32722;43.486;2.766;2022-08-19T09:58:27;3.80;;;3.50;;
46971;SDS011;32722;43.486;2.766;2022-08-19T10:00:55;5.22;;;3.90;;
46971;SDS011;32722;43.486;2.766;2022-08-19T10:03:23;5.43;;;3.80;;
46971;SDS011;32722;43.486;2.766;2022-08-19T10:05:50;4.20;;;3.40;;
46971;SDS011;32722;43.486;2.766;2022-08-19T10:08:17;4.28;;;3.60;;
46971;SDS011;32722;43.486;2.766;2022-08-19T10:10:44;3.88;;;3.42;;
46971;SDS011;32722;43.486;2.766;2022-08-19T10:13:11;7.10;;;3.67;;
46971;SDS011;32722;43.486;2.766;2022-08-19T10:15:37;3.63;;;3.33;;
46971;SDS011;32722;43.486;2.766;2022-08-19T10:18:07;5.15;;;3.83;;
46971;SDS011;32722;43.486;2.766;2022-08-19T10:20:33;5.32;;;4.00;;
46971;SDS011;32722;43.486;2.766;2022-08-19T10:23:01;3.97;;;3.58;;
46971;SDS011;32722;43.486;2.766;2022-08-19T10:25:28;4.07;;;3.78;;
46971;SDS011;32722;43.486;2.766;2022-08-19T10:27:54;5.35;;;4.53;;
46971;SDS011;32722;43.486;2.766;2022-08-19T10:30:21;4.40;;;3.97;;
46971;SDS011;32722;43.486;2.766;2022-08-19T10:32:47;4.95;;;3.97;;
46971;SDS011;32722;43.486;2.766;2022-08-19T10:35:13;5.82;;;4.30;;
46971;SDS011;32722;43.486;2.766;2022-08-19T10:37:40;4.68;;;4.07;;
46971;SDS011;32722;43.486;2.766;2022-08-19T10:40:06;4.78;;;4.18;;
46971;SDS011;32722;43.486;2.766;2022-08-19T10:42:35;6.43;;;4.35;;
46971;SDS011;32722;43.486;2.766;2022-08-19T10:45:01;4.00;;;3.53;;
46971;SDS011;32722;43.486;2.766;2022-08-19T10:47:28;4.75;;;4.35;;
46971;SDS011;32722;43.486;2.766;2022-08-19T10:49:54;4.90;;;4.25;;
46971;SDS011;32722;43.486;2.766;2022-08-19T10:52:40;3.83;;;3.42;;
46971;SDS011;32722;43.486;2.766;2022-08-19T10:55:07;6.70;;;4.22;;
46971;SDS011;32722;43.486;2.766;2022-08-19T10:57:52;5.40;;;3.63;;
46971;SDS011;32722;43.486;2.766;2022-08-19T11:00:21;4.60;;;4.05;;
46971;SDS011;32722;43.486;2.766;2022-08-19T11:02:48;5.22;;;4.00;;
46971;SDS011;32722;43.486;2.766;2022-08-19T11:05:15;5.03;;;3.45;;
46971;SDS011;32722;43.486;2.766;2022-08-19T11:07:42;7.55;;;3.78;;
46971;SDS011;32722;43.486;2.766;2022-08-19T11:10:10;6.07;;;4.30;;
46971;SDS011;32722;43.486;2.766;2022-08-19T11:12:37;5.15;;;4.28;;
46971;SDS011;32722;43.486;2.766;2022-08-19T11:15:04;4.57;;;4.13;;
46971;SDS011;32722;43.486;2.766;2022-08-19T11:17:31;4.40;;;3.78;;
46971;SDS011;32722;43.486;2.766;2022-08-19T11:19:57;5.03;;;4.05;;
46971;SDS011;32722;43.486;2.766;2022-08-19T11:22:24;4.45;;;4.00;;
46971;SDS011;32722;43.486;2.766;2022-08-19T11:24:50;4.45;;;4.05;;
46971;SDS011;32722;43.486;2.766;2022-08-19T11:27:16;6.07;;;4.05;;
46971;SDS011;32722;43.486;2.766;2022-08-19T11:29:42;4.53;;;4.13;;
46971;SDS011;32722;43.486;2.766;2022-08-19T11:32:10;3.72;;;3.35;;
46971;SDS011;32722;43.486;2.766;2022-08-19T11:34:39;5.65;;;3.42;;
46971;SDS011;32722;43.486;2.766;2022-08-19T11:37:05;4.35;;;3.38;;
46971;SDS011;32722;43.486;2.766;2022-08-19T11:39:34;4.43;;;3.50;;
46971;SDS011;32722;43.486;2.766;2022-08-19T11:42:01;5.68;;;3.28;;
46971;SDS011;32722;43.486;2.766;2022-08-19T11:44:48;3.60;;;3.30;;
46971;SDS011;32722;43.486;2.766;2022-08-19T11:47:14;4.75;;;4.22;;
46971;SDS011;32722;43.486;2.766;2022-08-19T11:49:40;4.57;;;3.75;;
46971;SDS011;32722;43.486;2.766;2022-08-19T11:52:07;6.07;;;3.85;;
46971;SDS011;32722;43.486;2.766;2022-08-19T11:54:34;7.68;;;3.83;;
46971;SDS011;32722;43.486;2.766;2022-08-19T11:57:02;5.57;;;4.25;;
46971;SDS011;32722;43.486;2.766;2022-08-19T11:59:28;4.65;;;3.60;;
46971;SDS011;32722;43.486;2.766;2022-08-19T12:01:54;7.70;;;4.18;;
46971;SDS011;32722;43.486;2.766;2022-08-19T12:04:21;4.18;;;3.60;;
46971;SDS011;32722;43.486;2.766;2022-08-19T12:06:47;5.95;;;4.15;;
46971;SDS011;32722;43.486;2.766;2022-08-19T12:09:15;4.97;;;4.20;;
46971;SDS011;32722;43.486;2.766;2022-08-19T12:11:42;4.00;;;3.65;;
46971;SDS011;32722;43.486;2.766;2022-08-19T12:14:12;6.00;;;3.88;;
46971;SDS011;32722;43.486;2.766;2022-08-19T12:16:39;5.30;;;4.25;;
46971;SDS011;32722;43.486;2.766;2022-08-19T12:19:06;3.78;;;3.47;;
46971;SDS011;32722;43.486;2.766;2022-08-19T12:21:34;5.00;;;3.88;;
46971;SDS011;32722;43.486;2.766;2022-08-19T12:24:01;3.75;;;3.35;;
46971;SDS011;32722;43.486;2.766;2022-08-19T12:26:28;5.15;;;3.85;;
46971;SDS011;32722;43.486;2.766;2022-08-19T12:28:56;3.55;;;3.17;;
46971;SDS011;32722;43.486;2.766;2022-08-19T12:31:24;3.80;;;3.17;;
46971;SDS011;32722;43.486;2.766;2022-08-19T12:33:50;4.20;;;3.65;;
46971;SDS011;32722;43.486;2.766;2022-08-19T12:36:17;4.80;;;3.35;;
46971;SDS011;32722;43.486;2.766;2022-08-19T12:38:44;5.50;;;3.03;;
46971;SDS011;32722;43.486;2.766;2022-08-19T12:41:12;4.10;;;2.72;;
46971;SDS011;32722;43.486;2.766;2022-08-19T12:43:38;3.40;;;2.88;;
46971;SDS011;32722;43.486;2.766;2022-08-19T12:46:06;3.25;;;2.95;;
46971;SDS011;32722;43.486;2.766;2022-08-19T12:48:33;4.93;;;3.47;;
46971;SDS011;32722;43.486;2.766;2022-08-19T12:51:00;3.53;;;3.17;;
46971;SDS011;32722;43.486;2.766;2022-08-19T12:53:27;5.47;;;3.72;;
46971;SDS011;32722;43.486;2.766;2022-08-19T12:55:57;4.57;;;3.83;;
46971;SDS011;32722;43.486;2.766;2022-08-19T13:00:50;7.65;;;4.53;;
46971;SDS011;32722;43.486;2.766;2022-08-19T13:03:17;4.75;;;4.28;;
46971;SDS011;32722;43.486;2.766;2022-08-19T13:05:43;7.38;;;4.25;;
46971;SDS011;32722;43.486;2.766;2022-08-19T13:08:09;6.70;;;4.68;;
46971;SDS011;32722;43.486;2.766;2022-08-19T13:10:36;5.53;;;4.70;;
46971;SDS011;32722;43.486;2.766;2022-08-19T13:13:04;7.97;;;5.75;;
46971;SDS011;32722;43.486;2.766;2022-08-19T13:15:35;6.03;;;4.78;;
46971;SDS011;32722;43.486;2.766;2022-08-19T13:18:01;5.00;;;4.22;;
46971;SDS011;32722;43.486;2.766;2022-08-19T13:20:28;5.88;;;5.28;;
46971;SDS011;32722;43.486;2.766;2022-08-19T13:22:54;6.38;;;5.22;;
46971;SDS011;32722;43.486;2.766;2022-08-19T13:25:22;7.65;;;4.38;;
46971;SDS011;32722;43.486;2.766;2022-08-19T13:27:48;5.13;;;4.28;;
46971;SDS011;32722;43.486;2.766;2022-08-19T13:30:16;7.55;;;5.00;;
46971;SDS011;32722;43.486;2.766;2022-08-19T13:33:01;5.63;;;4.78;;
46971;SDS011;32722;43.486;2.766;2022-08-19T13:38:14;5.38;;;4.65;;
46971;SDS011;32722;43.486;2.766;2022-08-19T13:40:40;6.30;;;4.85;;
46971;SDS011;32722;43.486;2.766;2022-08-19T13:43:07;7.57;;;4.72;;
46971;SDS011;32722;43.486;2.766;2022-08-19T13:45:34;7.20;;;4.45;;
46971;SDS011;32722;43.486;2.766;2022-08-19T13:48:01;6.50;;;4.97;;
46971;SDS011;32722;43.486;2.766;2022-08-19T13:50:31;8.13;;;4.97;;
46971;SDS011;32722;43.486;2.766;2022-08-19T13:52:58;8.38;;;4.88;;
46971;SDS011;32722;43.486;2.766;2022-08-19T13:55:25;7.60;;;4.35;;
46971;SDS011;32722;43.486;2.766;2022-08-19T13:57:55;5.40;;;4.78;;
46971;SDS011;32722;43.486;2.766;2022-08-19T14:00:22;7.15;;;4.88;;
46971;SDS011;32722;43.486;2.766;2022-08-19T14:02:51;6.85;;;5.03;;
46971;SDS011;32722;43.486;2.766;2022-08-19T14:05:17;6.15;;;4.47;;
46971;SDS011;32722;43.486;2.766;2022-08-19T14:07:44;5.47;;;4.13;;
46971;SDS011;32722;43.486;2.766;2022-08-19T14:10:11;5.97;;;4.05;;
46971;SDS011;32722;43.486;2.766;2022-08-19T14:12:39;6.72;;;4.43;;
46971;SDS011;32722;43.486;2.766;2022-08-19T14:15:07;6.28;;;4.78;;
46971;SDS011;32722;43.486;2.766;2022-08-19T14:17:33;4.70;;;4.20;;
46971;SDS011;32722;43.486;2.766;2022-08-19T14:20:00;5.03;;;4.07;;
46971;SDS011;32722;43.486;2.766;2022-08-19T14:22:29;7.10;;;4.18;;
46971;SDS011;32722;43.486;2.766;2022-08-19T14:24:58;9.00;;;4.13;;
46971;SDS011;32722;43.486;2.766;2022-08-19T14:27:24;4.55;;;4.10;;
46971;SDS011;32722;43.486;2.766;2022-08-19T14:29:51;5.05;;;3.95;;
46971;SDS011;32722;43.486;2.766;2022-08-19T14:32:17;6.38;;;4.20;;
46971;SDS011;32722;43.486;2.766;2022-08-19T14:34:43;7.88;;;4.57;;
46971;SDS011;32722;43.486;2.766;2022-08-19T14:37:12;4.95;;;4.20;;
46971;SDS011;32722;43.486;2.766;2022-08-19T14:39:39;5.00;;;4.20;;
46971;SDS011;32722;43.486;2.766;2022-08-19T14:42:07;4.68;;;4.10;;
46971;SDS011;32722;43.486;2.766;2022-08-19T14:44:33;4.82;;;3.75;;
46971;SDS011;32722;43.486;2.766;2022-08-19T14:46:59;5.35;;;4.18;;
46971;SDS011;32722;43.486;2.766;2022-08-19T14:49:26;8.35;;;4.47;;
46971;SDS011;32722;43.486;2.766;2022-08-19T14:51:52;4.25;;;3.70;;
46971;SDS011;32722;43.486;2.766;2022-08-19T14:54:18;4.68;;;3.67;;
46971;SDS011;32722;43.486;2.766;2022-08-19T14:56:44;5.28;;;3.58;;
46971;SDS011;32722;43.486;2.766;2022-08-19T14:59:10;5.15;;;3.80;;
46971;SDS011;32722;43.486;2.766;2022-08-19T15:01:36;7.68;;;4.18;;
46971;SDS011;32722;43.486;2.766;2022-08-19T15:04:03;4.78;;;3.60;;
46971;SDS011;32722;43.486;2.766;2022-08-19T15:06:29;6.55;;;4.00;;
46971;SDS011;32722;43.486;2.766;2022-08-19T15:08:56;7.28;;;3.88;;
46971;SDS011;32722;43.486;2.766;2022-08-19T15:11:23;4.10;;;3.70;;